Latest Coastal Weather Observations for Cape Otway

IDV60701

Issued at 11:22 pm EST Saturday 25 June 2022 (issued every 10 minutes, with the page automatically refreshed every 10 minutes)

About coastal observations | Map of coastal stations | Coastal observations for VIC | Marine services | Other Formats
Station Details ID: 090015 Name: CAPE OTWAY LIGHTHOUSE Lat: -38.86 Lon: 143.51 Height: 80.0 m
Data from the previous 72 hours. | See also: Recent months at Cape Otway
Date/Time
EST
Wind Sea
Height
m
Swell Vis
km
Cloud Weather Temp
°C
Press
MSL
hPa
Rain since
9am
mm
Dir  Spd
kts
Gust
kts
Height
m
Period
s
Dir
25/11:00pm NW 19 32 - - - - - - - 12.5 1016.8 0.0
25/10:30pm NW 19 29 - - - - - - - 12.5 1016.6 0.0
25/10:00pm NW 16 30 - - - - - - - 12.4 1016.8 0.0
25/09:30pm NNW 17 30 - - - - - - - 12.4 1016.8 0.0
25/09:00pm NNW 17 27 - - - - - - - 12.3 1016.4 0.0
25/08:30pm NNW 15 25 - - - - - - - 12.3 1016.5 0.0
25/08:00pm NNW 15 26 - - - - - - - 12.3 1016.4 0.0
25/07:33pm NNW 15 25 - - - - - - - 12.1 1016.3 0.0
25/07:30pm NNW 15 24 - - - - - - - 12.1 1016.4 0.0
25/07:00pm NNW 16 34 - - - - - - - 12.8 1016.6 0.0
25/06:36pm NNW 15 25 - - - - - - - 12.6 1016.1 0.0
25/06:30pm NNW 16 25 - - - - - - - 12.7 1016.0 0.0
25/06:07pm NNW 16 27 - - - - - - - 12.7 1015.8 0.0
25/06:00pm NNW 15 23 - - - - - - - 12.8 1015.8 0.0
25/05:30pm NNW 17 27 - - - - - - - 12.9 1015.4 0.0
25/05:21pm NNW 15 25 - - - - - - - 12.7 1015.4 0.0
25/05:00pm NNW 13 23 - - - - - - - 12.7 1015.5 0.0
25/04:30pm NW 15 22 - - - - - - - 13.3 1015.3 0.0
25/04:00pm NW 16 24 - - - - - - - 13.7 1015.5 0.0
25/03:30pm NW 17 27 - - - - - - - 13.4 1015.5 0.0
25/03:18pm NW 17 27 - - - - - - - 13.3 1015.5 0.0
25/03:00pm NW 15 23 - - - - - - - 13.8 1015.3 0.0
25/02:42pm NW 16 26 - - - - - - - 14.0 1015.3 0.0
25/02:30pm NW 19 27 - - - - - - - 13.7 1015.2 0.0
25/02:10pm NW 15 25 - - - - - - - 13.9 1015.3 0.0
25/02:00pm NW 15 23 - - - - - - - 14.1 1015.5 0.0
25/01:30pm NW 16 27 - - - - - - - 13.8 1015.6 0.0
25/01:09pm NW 15 25 - - - - - - - 13.5 1015.8 0.0
25/01:00pm NW 14 22 - - - - - - - 13.2 1016.0 0.0
25/12:33pm NW 17 27 - - - - - - - 12.6 1016.2 0.0
25/12:30pm NW 16 24 - - - - - - - 12.9 1016.3 0.0
25/12:00pm NW 17 29 - - - - - - - 12.6 1016.2 0.0
25/11:46am NW 17 28 - - - - - - - 13.1 1016.4 0.0
25/11:30am NW 16 24 - - - - - - - 13.1 1016.4 0.0
25/11:00am NW 15 26 - - - - - - - 12.3 1016.6 0.0
25/10:30am NW 16 26 - - - - - - - 12.8 1016.3 0.0
25/10:00am NW 15 27 - - - - - - - 12.3 1016.1 0.0
25/09:36am NNW 15 25 - - - - - - - 11.6 1016.0 0.0
25/09:30am NNW 13 21 - - - - - - - 11.5 1016.0 0.0
25/09:00am NNW 15 21 - - - - - - - 11.1 1016.0 0.4
25/08:30am NNW 16 29 - - - - - - - 10.9 1015.7 0.4
25/08:19am NW 16 28 - - - - - - - 11.0 1015.8 0.4
25/08:00am NNW 15 23 - - - - - - - 10.7 1015.5 0.4
25/07:30am NW 15 28 - - - - - - - 10.5 1015.3 0.4
25/07:27am NW 15 28 - - - - - - - 10.5 1015.3 0.4
25/07:00am NNW 15 24 - - - - - - - 10.3 1015.1 0.4
25/06:44am NNW 15 26 - - - - - - - 10.5 1015.0 0.4
25/06:30am NW 15 24 - - - - - - - 10.5 1015.0 0.4
25/06:10am NW 15 28 - - - - - - - 10.8 1014.8 0.4
25/06:00am NW 14 23 - - - - - - - 10.7 1014.7 0.4
25/05:30am NW 13 21 - - - - - - - 10.3 1014.6 0.4
25/05:00am NNW 16 25 - - - - - - - 10.2 1014.3 0.4
25/04:30am NW 16 27 - - - - - - - 10.5 1014.2 0.4
25/04:00am NW 15 26 - - - - - - - 10.5 1014.0 0.4
25/03:43am NW 15 25 - - - - - - - 10.4 1014.0 0.4
25/03:30am NW 15 24 - - - - - - - 10.5 1014.0 0.4
25/03:00am NW 17 28 - - - - - - - 10.8 1014.1 0.4
25/02:30am NW 15 25 - - - - - - - 10.6 1014.1 0.4
25/02:15am NNW 15 25 - - - - - - - 10.6 1014.1 0.4
25/02:00am NNW 15 23 - - - - - - - 10.6 1014.1 0.4
25/01:30am NNW 13 21 - - - - - - - 10.3 1014.2 0.4
25/01:00am NNW 13 19 - - - - - - - 10.1 1014.5 0.4
25/12:30am NNW 11 17 - - - - - - - 9.7 1014.7 0.4
25/12:00am NNW 11 15 - - - - - - - 9.7 1014.8 0.4
 
Date/Time
EST
Wind Sea
Height
m
Swell Vis
km
Cloud Weather Temp
°C
Press
MSL
hPa
Rain since
9am
mm
Dir  Spd
kts
Gust
kts
Height
m
Period
s
Dir
24/11:30pm NNW 12 18 - - - - - - - 10.0 1015.0 0.4
24/11:00pm NNW 13 18 - - - - - - - 10.1 1015.1 0.4
24/10:30pm NNW 12 19 - - - - - - - 10.2 1015.3 0.4
24/10:00pm NNW 13 20 - - - - - - - 10.5 1015.5 0.4
24/09:30pm NNW 9 13 - - - - - - - 10.1 1015.6 0.4
24/09:00pm NNW 9 12 - - - - - - Recent precip. 10.4 1015.7 0.4
24/08:30pm NNW 9 14 - - - - - - - 10.8 1015.7 0.4
24/08:00pm WNW 14 21 - - - - - - - 12.2 1015.6 0.2
24/07:30pm WNW 15 21 - - - - - - - 12.4 1015.6 0.2
24/07:00pm W 17 24 - - - - - - - 12.3 1015.3 0.2
24/06:30pm W 17 22 - - - - - - - 12.3 1014.9 0.2
24/06:00pm WNW 15 22 - - - - - - - 12.3 1014.7 0.2
24/05:30pm WNW 15 23 - - - - - - - 12.3 1014.5 0.2
24/05:00pm WNW 17 23 - - - - - - - 12.2 1014.2 0.2
24/04:31pm WNW 16 30 - - - - - - - 12.1 1013.9 0.2
24/04:30pm WNW 16 22 - - - - - - - 12.2 1013.9 0.2
24/04:00pm WNW 15 21 - - - - - - - 12.4 1014.0 0.2
24/03:30pm WNW 15 20 - - - - - - - 12.2 1013.9 0.2
24/03:00pm WNW 15 21 - - - - - - - 12.4 1013.7 0.2
24/02:30pm W 16 23 - - - - - - - 12.5 1013.4 0.2
24/02:00pm WNW 17 24 - - - - - - - 12.8 1013.3 0.2
24/01:30pm W 17 22 - - - - - - - 12.6 1013.3 0.2
24/01:00pm WNW 19 27 - - - - - - - 12.7 1013.2 0.2
24/12:49pm WNW 18 28 - - - - - - - 12.5 1013.3 0.2
24/12:30pm W 17 24 - - - - - - - 12.2 1013.5 0.2
24/12:00pm WNW 19 27 - - - - - - - 13.0 1013.5 0.2
24/11:56am WNW 16 27 - - - - - - - 12.6 1013.5 0.2
24/11:30am WNW 16 23 - - - - - - - 12.3 1013.7 0.2
24/11:00am WNW 17 23 - - - - - - - 12.4 1013.6 0.2
24/10:39am WNW 17 29 - - - - - - - 13.2 1013.3 0.0
24/10:30am WNW 18 26 - - - - - - - 13.0 1013.3 0.0
24/10:09am WNW 18 28 - - - - - - - 12.9 1013.2 0.0
24/10:00am WNW 18 23 - - - - - - - 12.4 1013.2 0.0
24/09:31am W 17 27 - - - - - - - 12.2 1012.9 0.0
24/09:30am W 18 27 - - - - - - - 12.1 1012.8 0.0
24/09:00am WNW 19 28 - - - - - - - 12.9 1012.5 8.2
24/08:34am WNW 18 28 - - - - - - - 13.0 1012.0 8.2
24/08:30am WNW 19 28 - - - - - - - 12.7 1012.0 8.2
24/08:00am WNW 21 29 - - - - - - - 12.7 1011.9 8.2
24/07:30am WNW 19 27 - - - - - - - 12.6 1011.4 8.2
24/07:07am WNW 18 28 - - - - - - - 12.0 1011.2 8.2
24/07:00am W 21 28 - - - - - - - 11.6 1011.0 8.2
24/06:35am WNW 18 32 - - - - - - - 11.9 1010.9 7.8
24/06:30am NW 17 26 - - - - - - - 12.0 1010.7 7.6
24/06:00am NW 19 26 - - - - - - Recent precip. 11.7 1010.3 7.6
24/05:30am NW 16 26 - - - - - - - 12.1 1010.0 5.4
24/05:11am NW 15 25 - - - - - - - 11.8 1009.8 5.4
24/05:00am NW 17 26 - - - - - - - 12.0 1009.8 5.4
24/04:45am NW 15 29 - - - - - - - 12.0 1009.6 5.2
24/04:30am NW 16 24 - - - - - - - 12.0 1009.6 5.0
24/04:19am NW 15 27 - - - - - - - 12.0 1009.4 5.0
24/04:00am NNW 13 20 - - - - - - - 11.9 1009.2 5.0
24/03:30am NNW 12 17 - - - - - - - 11.9 1009.4 5.0
24/03:00am NW 11 18 - - - - - - Recent precip. 11.8 1009.6 5.0
24/02:30am NW 14 24 - - - - - - - 11.9 1009.9 5.0
24/02:00am NW 13 21 - - - - - - - 11.8 1010.0 4.8
24/01:30am NNW 12 20 - - - - - - - 11.7 1009.8 4.2
24/01:00am NW 16 23 - - - - - - - 12.1 1010.3 3.6
24/12:30am NW 18 30 - - - - - - - 12.4 1010.3 2.8
24/12:21am NW 17 27 - - - - - - - 12.3 1010.4 2.8
24/12:00am NW 17 24 - - - - - - Recent precip. 12.6 1010.3 2.6
 
Date/Time
EST
Wind Sea
Height
m
Swell Vis
km
Cloud Weather Temp
°C
Press
MSL
hPa
Rain since
9am
mm
Dir  Spd
kts
Gust
kts
Height
m
Period
s
Dir
23/11:30pm NW 19 29 - - - - - - - 13.2 1010.4 1.0
23/11:00pm NNW 18 33 - - - - - - - 14.8 1009.1 0.2
23/10:30pm NNW 18 30 - - - - - - - 14.7 1009.0 0.2
23/10:00pm NNW 18 30 - - - - - - - 14.8 1009.3 0.2
23/09:30pm NNW 19 31 - - - - - - - 14.7 1009.9 0.2
23/09:12pm N 19 31 - - - - - - - 14.8 1010.2 0.2
23/09:00pm N 19 28 - - - - - - - 14.7 1010.4 0.2
23/08:30pm N 19 32 - - - - - - - 15.0 1010.5 0.2
23/08:00pm N 17 29 - - - - - - - 14.8 1010.8 0.2
23/07:31pm N 17 27 - - - - - - - 14.9 1011.1 0.2
23/07:30pm N 18 27 - - - - - - - 15.0 1011.0 0.2
23/07:00pm NNW 16 26 - - - - - - - 15.1 1011.3 0.0
23/06:30pm NNW 15 28 - - - - - - - 15.2 1011.5 0.0
23/06:00pm N 18 28 - - - - - - - 15.3 1011.7 0.0
23/05:30pm NNW 19 30 - - - - - - - 15.1 1011.9 0.0
23/05:00pm NNW 17 29 - - - - - - - 14.9 1012.1 0.0
23/04:30pm NNW 16 27 - - - - - - - 15.1 1012.7 0.0
23/04:00pm NNW 15 26 - - - - - - - 15.0 1013.0 0.0
23/03:31pm NNW 15 25 - - - - - - - 15.2 1013.1 0.0
23/03:30pm NNW 16 25 - - - - - - - 15.3 1013.1 0.0
23/03:28pm NNW 15 25 - - - - - - - 15.3 1013.1 0.0
23/03:00pm NNW 14 24 - - - - - - - 15.3 1013.2 0.0
23/02:30pm NNW 15 25 - - - - - - - 15.2 1013.4 0.0
23/02:00pm NNW 15 26 - - - - - - - 15.7 1013.7 0.0
23/01:30pm NNW 16 27 - - - - - - - 15.4 1014.1 0.0
23/01:00pm NNW 15 27 - - - - - - - 15.4 1014.7 0.0
23/12:31pm NNW 16 26 - - - - - - - 15.0 1015.3 0.0
23/12:30pm NNW 15 23 - - - - - - - 15.0 1015.3 0.0
23/12:16pm NNW 15 26 - - - - - - - 14.9 1015.5 0.0
23/12:00pm NNW 15 24 - - - - - - - 14.9 1015.9 0.0
23/11:49am NNW 15 25 - - - - - - - 14.5 1016.0 0.0
23/11:30am NNW 15 24 - - - - - - - 14.5 1016.4 0.0
23/11:00am NNW 15 26 - - - - - - - 14.3 1016.8 0.0
23/10:30am NNW 17 30 - - - - - - - 14.1 1017.4 0.0
23/10:00am N 17 29 - - - - - - - 13.8 1017.7 0.0
23/09:37am NNW 15 25 - - - - - - - 13.4 1017.7 0.0
23/09:30am NNW 12 23 - - - - - - - 13.3 1017.9 0.0
23/09:00am NNW 15 23 - - - - - - - 13.3 1018.3 0.4
23/08:30am NNW 14 24 - - - - - - - 12.9 1018.6 0.4
23/08:00am NW 15 24 - - - - - - - 12.7 1018.6 0.4
23/07:30am NNW 13 20 - - - - - - - 12.4 1018.7 0.4
23/07:00am NNW 13 22 - - - - - - - 12.4 1018.7 0.4
23/06:30am NNW 13 22 - - - - - - - 12.4 1018.7 0.4
23/06:00am NNW 13 19 - - - - - - - 12.6 1018.7 0.4
23/05:30am NNW 12 17 - - - - - - - 12.7 1018.3 0.4
23/05:00am NNW 12 21 - - - - - - - 12.7 1018.2 0.4
23/04:30am NNW 12 18 - - - - - - - 12.6 1018.4 0.4
23/04:00am NNW 12 17 - - - - - - - 12.2 1018.5 0.4
23/03:30am NNW 9 14 - - - - - - - 12.0 1018.8 0.4
23/03:00am NW 13 21 - - - - - - Rain 12.5 1019.6 0.4
23/02:30am NNW 12 16 - - - - - - - 12.3 1019.5 0.2
23/02:00am NNW 13 19 - - - - - - - 12.4 1019.8 0.2
23/01:30am NNW 13 18 - - - - - - - 12.2 1019.9 0.2
23/01:00am NW 14 22 - - - - - - - 12.4 1020.5 0.2
23/12:30am NW 12 21 - - - - - - - 13.1 1020.7 0.2
23/12:00am NNW 10 15 - - - - - - - 12.4 1020.9 0.2
 
Date/Time
EST
Wind Sea
Height
m
Swell Vis
km
Cloud Weather Temp
°C
Press
MSL
hPa
Rain since
9am
mm
Dir  Spd
kts
Gust
kts
Height
m
Period
s
Dir
22/11:30pm NNW 9 13 - - - - - - - 12.2 1021.1 0.2

Other formats

Comma delimited format used in spreadsheet applications
http://www.bom.gov.au/fwo/IDV60701/IDV60701.94842.axf

JavaScript Object Notation format (JSON) in row-major order
http://www.bom.gov.au/fwo/IDV60701/IDV60701.94842.json

Data quality

Most of these data are generated automatically and are frequently updated. Quality checks on data are not normally performed. It is possible for incorrect values to appear. Refer to information at About Latest Weather Observations and please check the disclaimer before using these data.